sensor_id;sensor_type;location;lat;lon;timestamp;P1;durP1;ratioP1;P2;durP2;ratioP2
14470;SDS011;7321;50.802;4.336;2023-04-01T00:00:29;9.63;;;2.90;;
14470;SDS011;7321;50.802;4.336;2023-04-01T00:02:55;8.20;;;2.93;;
14470;SDS011;7321;50.802;4.336;2023-04-01T00:05:22;6.60;;;3.03;;
14470;SDS011;7321;50.802;4.336;2023-04-01T00:07:49;10.40;;;3.20;;
14470;SDS011;7321;50.802;4.336;2023-04-01T00:10:16;5.07;;;2.63;;
14470;SDS011;7321;50.802;4.336;2023-04-01T00:12:42;7.80;;;2.63;;
14470;SDS011;7321;50.802;4.336;2023-04-01T00:15:09;6.83;;;2.70;;
14470;SDS011;7321;50.802;4.336;2023-04-01T00:17:36;8.10;;;2.70;;
14470;SDS011;7321;50.802;4.336;2023-04-01T00:20:04;5.00;;;2.53;;
14470;SDS011;7321;50.802;4.336;2023-04-01T00:22:31;7.27;;;2.77;;
14470;SDS011;7321;50.802;4.336;2023-04-01T00:24:56;8.70;;;2.60;;
14470;SDS011;7321;50.802;4.336;2023-04-01T00:27:22;6.87;;;2.73;;
14470;SDS011;7321;50.802;4.336;2023-04-01T00:29:48;5.90;;;2.10;;
14470;SDS011;7321;50.802;4.336;2023-04-01T00:32:14;6.77;;;2.37;;
14470;SDS011;7321;50.802;4.336;2023-04-01T00:34:40;6.70;;;2.20;;
14470;SDS011;7321;50.802;4.336;2023-04-01T00:37:07;6.13;;;2.20;;
14470;SDS011;7321;50.802;4.336;2023-04-01T00:39:33;7.03;;;2.43;;
14470;SDS011;7321;50.802;4.336;2023-04-01T00:42:00;5.70;;;2.97;;
14470;SDS011;7321;50.802;4.336;2023-04-01T00:44:28;6.30;;;2.80;;
14470;SDS011;7321;50.802;4.336;2023-04-01T00:46:56;4.87;;;2.23;;
14470;SDS011;7321;50.802;4.336;2023-04-01T00:49:22;6.07;;;2.70;;
14470;SDS011;7321;50.802;4.336;2023-04-01T00:51:53;6.80;;;2.73;;
14470;SDS011;7321;50.802;4.336;2023-04-01T00:54:21;4.73;;;3.10;;
14470;SDS011;7321;50.802;4.336;2023-04-01T00:57:02;5.57;;;2.80;;
14470;SDS011;7321;50.802;4.336;2023-04-01T00:59:35;5.83;;;3.17;;
14470;SDS011;7321;50.802;4.336;2023-04-01T01:02:07;5.53;;;2.80;;
14470;SDS011;7321;50.802;4.336;2023-04-01T01:04:35;4.63;;;2.70;;
14470;SDS011;7321;50.802;4.336;2023-04-01T01:29:10;3.77;;;2.40;;
14470;SDS011;7321;50.802;4.336;2023-04-01T01:34:36;3.37;;;2.33;;
14470;SDS011;7321;50.802;4.336;2023-04-01T01:37:16;3.03;;;2.40;;
14470;SDS011;7321;50.802;4.336;2023-04-01T01:39:44;4.60;;;2.57;;
14470;SDS011;7321;50.802;4.336;2023-04-01T01:42:15;3.80;;;2.40;;
14470;SDS011;7321;50.802;4.336;2023-04-01T01:44:44;4.57;;;2.20;;
14470;SDS011;7321;50.802;4.336;2023-04-01T01:47:12;3.13;;;2.40;;
14470;SDS011;7321;50.802;4.336;2023-04-01T01:49:39;4.43;;;2.40;;
14470;SDS011;7321;50.802;4.336;2023-04-01T01:52:06;3.10;;;2.23;;
14470;SDS011;7321;50.802;4.336;2023-04-01T01:54:32;8.03;;;3.10;;
14470;SDS011;7321;50.802;4.336;2023-04-01T01:57:08;4.77;;;3.17;;
14470;SDS011;7321;50.802;4.336;2023-04-01T01:59:36;6.03;;;3.60;;
14470;SDS011;7321;50.802;4.336;2023-04-01T02:02:05;8.27;;;3.27;;
14470;SDS011;7321;50.802;4.336;2023-04-01T02:04:37;7.23;;;3.77;;
14470;SDS011;7321;50.802;4.336;2023-04-01T02:07:07;6.17;;;4.00;;
14470;SDS011;7321;50.802;4.336;2023-04-01T02:09:37;5.13;;;3.90;;
14470;SDS011;7321;50.802;4.336;2023-04-01T02:12:06;10.23;;;4.63;;
14470;SDS011;7321;50.802;4.336;2023-04-01T02:17:06;5.77;;;4.30;;
14470;SDS011;7321;50.802;4.336;2023-04-01T02:19:36;6.70;;;4.50;;
14470;SDS011;7321;50.802;4.336;2023-04-01T02:22:07;7.17;;;4.73;;
14470;SDS011;7321;50.802;4.336;2023-04-01T02:24:37;6.37;;;4.37;;
14470;SDS011;7321;50.802;4.336;2023-04-01T02:27:05;6.53;;;4.87;;
14470;SDS011;7321;50.802;4.336;2023-04-01T02:29:31;5.83;;;4.70;;
14470;SDS011;7321;50.802;4.336;2023-04-01T02:31:57;6.20;;;3.90;;
14470;SDS011;7321;50.802;4.336;2023-04-01T02:34:24;7.03;;;4.37;;
14470;SDS011;7321;50.802;4.336;2023-04-01T02:36:50;5.80;;;4.00;;
14470;SDS011;7321;50.802;4.336;2023-04-01T02:39:17;6.30;;;4.30;;
14470;SDS011;7321;50.802;4.336;2023-04-01T02:41:44;5.63;;;4.43;;
14470;SDS011;7321;50.802;4.336;2023-04-01T02:44:11;6.83;;;4.40;;
14470;SDS011;7321;50.802;4.336;2023-04-01T02:46:38;7.40;;;4.60;;
14470;SDS011;7321;50.802;4.336;2023-04-01T02:49:04;6.53;;;4.20;;
14470;SDS011;7321;50.802;4.336;2023-04-01T02:51:32;10.07;;;4.50;;
14470;SDS011;7321;50.802;4.336;2023-04-01T02:53:58;7.10;;;4.00;;
14470;SDS011;7321;50.802;4.336;2023-04-01T02:56:24;10.67;;;4.93;;
14470;SDS011;7321;50.802;4.336;2023-04-01T02:58:51;9.97;;;5.27;;
14470;SDS011;7321;50.802;4.336;2023-04-01T03:01:17;9.53;;;5.17;;
14470;SDS011;7321;50.802;4.336;2023-04-01T03:03:43;9.30;;;5.17;;
14470;SDS011;7321;50.802;4.336;2023-04-01T03:06:13;8.00;;;5.20;;
14470;SDS011;7321;50.802;4.336;2023-04-01T03:08:40;7.87;;;5.43;;
14470;SDS011;7321;50.802;4.336;2023-04-01T03:11:06;11.67;;;5.83;;
14470;SDS011;7321;50.802;4.336;2023-04-01T03:13:32;17.77;;;6.00;;
14470;SDS011;7321;50.802;4.336;2023-04-01T03:15:58;8.20;;;5.73;;
14470;SDS011;7321;50.802;4.336;2023-04-01T03:18:26;12.57;;;7.20;;
14470;SDS011;7321;50.802;4.336;2023-04-01T03:20:52;10.73;;;6.97;;
14470;SDS011;7321;50.802;4.336;2023-04-01T03:23:18;6.83;;;6.13;;
14470;SDS011;7321;50.802;4.336;2023-04-01T03:25:46;9.83;;;7.20;;
14470;SDS011;7321;50.802;4.336;2023-04-01T03:28:13;13.80;;;7.67;;
14470;SDS011;7321;50.802;4.336;2023-04-01T03:30:39;10.77;;;6.90;;
14470;SDS011;7321;50.802;4.336;2023-04-01T03:33:06;15.87;;;7.93;;
14470;SDS011;7321;50.802;4.336;2023-04-01T03:35:32;11.03;;;7.73;;
14470;SDS011;7321;50.802;4.336;2023-04-01T03:37:58;12.13;;;7.43;;
14470;SDS011;7321;50.802;4.336;2023-04-01T03:40:23;11.40;;;6.83;;
14470;SDS011;7321;50.802;4.336;2023-04-01T03:42:51;12.07;;;7.20;;
14470;SDS011;7321;50.802;4.336;2023-04-01T03:45:17;10.77;;;7.13;;
14470;SDS011;7321;50.802;4.336;2023-04-01T03:47:43;12.13;;;6.77;;
14470;SDS011;7321;50.802;4.336;2023-04-01T03:50:09;12.47;;;7.57;;
14470;SDS011;7321;50.802;4.336;2023-04-01T03:52:35;14.00;;;7.30;;
14470;SDS011;7321;50.802;4.336;2023-04-01T03:55:01;13.73;;;6.77;;
14470;SDS011;7321;50.802;4.336;2023-04-01T03:57:27;15.30;;;7.30;;
14470;SDS011;7321;50.802;4.336;2023-04-01T03:59:55;12.87;;;7.47;;
14470;SDS011;7321;50.802;4.336;2023-04-01T04:02:21;12.80;;;6.83;;
14470;SDS011;7321;50.802;4.336;2023-04-01T04:04:47;11.50;;;6.37;;
14470;SDS011;7321;50.802;4.336;2023-04-01T04:07:12;14.60;;;6.97;;
14470;SDS011;7321;50.802;4.336;2023-04-01T04:09:38;12.47;;;7.00;;
14470;SDS011;7321;50.802;4.336;2023-04-01T04:12:04;8.67;;;6.10;;
14470;SDS011;7321;50.802;4.336;2023-04-01T04:14:31;13.20;;;6.63;;
14470;SDS011;7321;50.802;4.336;2023-04-01T04:16:57;11.73;;;6.37;;
14470;SDS011;7321;50.802;4.336;2023-04-01T04:19:23;11.20;;;6.33;;
14470;SDS011;7321;50.802;4.336;2023-04-01T04:21:49;11.60;;;6.20;;
14470;SDS011;7321;50.802;4.336;2023-04-01T04:24:15;14.43;;;6.80;;
14470;SDS011;7321;50.802;4.336;2023-04-01T04:26:41;13.97;;;6.87;;
14470;SDS011;7321;50.802;4.336;2023-04-01T04:29:07;10.23;;;7.00;;
14470;SDS011;7321;50.802;4.336;2023-04-01T04:31:32;11.43;;;7.23;;
14470;SDS011;7321;50.802;4.336;2023-04-01T04:33:59;10.83;;;7.33;;
14470;SDS011;7321;50.802;4.336;2023-04-01T04:36:28;9.33;;;6.60;;
14470;SDS011;7321;50.802;4.336;2023-04-01T04:38:54;9.17;;;6.70;;
14470;SDS011;7321;50.802;4.336;2023-04-01T04:41:20;9.73;;;6.67;;
14470;SDS011;7321;50.802;4.336;2023-04-01T04:43:54;9.37;;;6.67;;
14470;SDS011;7321;50.802;4.336;2023-04-01T04:46:21;9.13;;;6.57;;
14470;SDS011;7321;50.802;4.336;2023-04-01T04:48:48;9.43;;;6.73;;
14470;SDS011;7321;50.802;4.336;2023-04-01T04:51:17;10.20;;;6.33;;
14470;SDS011;7321;50.802;4.336;2023-04-01T04:53:45;8.80;;;6.60;;
14470;SDS011;7321;50.802;4.336;2023-04-01T04:56:11;8.17;;;6.20;;
14470;SDS011;7321;50.802;4.336;2023-04-01T04:58:37;8.23;;;5.60;;
14470;SDS011;7321;50.802;4.336;2023-04-01T05:01:11;6.73;;;5.40;;
14470;SDS011;7321;50.802;4.336;2023-04-01T05:03:38;6.97;;;5.00;;
14470;SDS011;7321;50.802;4.336;2023-04-01T05:06:06;9.13;;;4.90;;
14470;SDS011;7321;50.802;4.336;2023-04-01T05:08:33;8.00;;;4.70;;
14470;SDS011;7321;50.802;4.336;2023-04-01T05:11:00;4.97;;;3.80;;
14470;SDS011;7321;50.802;4.336;2023-04-01T05:13:27;9.13;;;4.43;;
14470;SDS011;7321;50.802;4.336;2023-04-01T05:15:53;5.93;;;4.33;;
14470;SDS011;7321;50.802;4.336;2023-04-01T05:18:19;5.27;;;3.70;;
14470;SDS011;7321;50.802;4.336;2023-04-01T05:20:46;5.00;;;4.27;;
14470;SDS011;7321;50.802;4.336;2023-04-01T05:23:16;6.60;;;4.37;;
14470;SDS011;7321;50.802;4.336;2023-04-01T05:25:42;7.20;;;5.07;;
14470;SDS011;7321;50.802;4.336;2023-04-01T05:28:08;6.47;;;4.57;;
14470;SDS011;7321;50.802;4.336;2023-04-01T05:30:34;8.50;;;5.00;;
14470;SDS011;7321;50.802;4.336;2023-04-01T05:33:00;6.07;;;4.80;;
14470;SDS011;7321;50.802;4.336;2023-04-01T05:35:26;6.73;;;5.00;;
14470;SDS011;7321;50.802;4.336;2023-04-01T05:37:52;7.83;;;4.80;;
14470;SDS011;7321;50.802;4.336;2023-04-01T05:40:17;8.33;;;5.17;;
14470;SDS011;7321;50.802;4.336;2023-04-01T05:42:43;8.23;;;5.57;;
14470;SDS011;7321;50.802;4.336;2023-04-01T05:45:09;7.57;;;5.97;;
14470;SDS011;7321;50.802;4.336;2023-04-01T05:47:35;9.93;;;6.57;;
14470;SDS011;7321;50.802;4.336;2023-04-01T05:50:01;9.90;;;6.67;;
14470;SDS011;7321;50.802;4.336;2023-04-01T05:52:27;8.93;;;6.87;;
14470;SDS011;7321;50.802;4.336;2023-04-01T05:54:53;10.03;;;7.17;;
14470;SDS011;7321;50.802;4.336;2023-04-01T05:57:19;9.83;;;7.20;;
14470;SDS011;7321;50.802;4.336;2023-04-01T05:59:45;10.57;;;7.10;;
14470;SDS011;7321;50.802;4.336;2023-04-01T06:02:11;8.80;;;6.80;;
14470;SDS011;7321;50.802;4.336;2023-04-01T06:04:37;11.33;;;7.47;;
14470;SDS011;7321;50.802;4.336;2023-04-01T06:07:14;11.50;;;7.17;;
14470;SDS011;7321;50.802;4.336;2023-04-01T06:09:41;8.83;;;6.63;;
14470;SDS011;7321;50.802;4.336;2023-04-01T06:18:29;10.73;;;6.97;;
14470;SDS011;7321;50.802;4.336;2023-04-01T06:21:06;8.67;;;6.63;;
14470;SDS011;7321;50.802;4.336;2023-04-01T06:30:10;10.57;;;7.23;;
14470;SDS011;7321;50.802;4.336;2023-04-01T06:32:50;10.93;;;8.23;;
14470;SDS011;7321;50.802;4.336;2023-04-01T06:44:11;11.27;;;7.17;;
14470;SDS011;7321;50.802;4.336;2023-04-01T06:46:59;10.37;;;7.13;;
14470;SDS011;7321;50.802;4.336;2023-04-01T06:49:44;11.20;;;7.60;;
14470;SDS011;7321;50.802;4.336;2023-04-01T06:55:42;10.40;;;7.20;;
14470;SDS011;7321;50.802;4.336;2023-04-01T06:58:13;9.80;;;5.97;;
14470;SDS011;7321;50.802;4.336;2023-04-01T07:00:48;10.50;;;6.70;;
14470;SDS011;7321;50.802;4.336;2023-04-01T07:06:03;8.33;;;5.43;;
14470;SDS011;7321;50.802;4.336;2023-04-01T07:08:31;9.73;;;6.10;;
14470;SDS011;7321;50.802;4.336;2023-04-01T07:11:02;7.10;;;5.33;;
14470;SDS011;7321;50.802;4.336;2023-04-01T07:16:39;8.70;;;6.37;;
14470;SDS011;7321;50.802;4.336;2023-04-01T07:24:22;9.80;;;5.57;;
14470;SDS011;7321;50.802;4.336;2023-04-01T07:26:55;8.27;;;5.77;;
14470;SDS011;7321;50.802;4.336;2023-04-01T07:29:22;6.83;;;5.53;;
14470;SDS011;7321;50.802;4.336;2023-04-01T07:34:44;8.47;;;5.43;;
14470;SDS011;7321;50.802;4.336;2023-04-01T07:50:49;6.63;;;4.23;;
14470;SDS011;7321;50.802;4.336;2023-04-01T07:56:27;4.03;;;3.60;;
14470;SDS011;7321;50.802;4.336;2023-04-01T08:01:58;2.40;;;2.20;;
14470;SDS011;7321;50.802;4.336;2023-04-01T08:23:37;3.80;;;2.40;;
14470;SDS011;7321;50.802;4.336;2023-04-01T08:34:55;1.97;;;1.50;;
14470;SDS011;7321;50.802;4.336;2023-04-01T08:37:05;1.77;;;1.47;;
14470;SDS011;7321;50.802;4.336;2023-04-01T09:01:51;5.47;;;3.23;;
14470;SDS011;7321;50.802;4.336;2023-04-01T09:04:54;2.23;;;2.10;;
14470;SDS011;7321;50.802;4.336;2023-04-01T09:16:03;3.80;;;2.00;;
14470;SDS011;7321;50.802;4.336;2023-04-01T09:18:47;2.87;;;2.00;;
14470;SDS011;7321;50.802;4.336;2023-04-01T09:21:42;2.47;;;2.07;;
14470;SDS011;7321;50.802;4.336;2023-04-01T09:24:41;4.30;;;3.90;;
14470;SDS011;7321;50.802;4.336;2023-04-01T09:35:47;4.20;;;3.80;;
14470;SDS011;7321;50.802;4.336;2023-04-01T10:05:22;2.30;;;1.63;;
14470;SDS011;7321;50.802;4.336;2023-04-01T10:11:04;2.07;;;1.50;;
14470;SDS011;7321;50.802;4.336;2023-04-01T10:16:27;1.73;;;1.60;;
14470;SDS011;7321;50.802;4.336;2023-04-01T10:30:05;1.50;;;1.40;;
14470;SDS011;7321;50.802;4.336;2023-04-01T10:41:38;1.47;;;1.33;;
14470;SDS011;7321;50.802;4.336;2023-04-01T10:47:26;1.90;;;1.50;;
14470;SDS011;7321;50.802;4.336;2023-04-01T11:13:44;2.00;;;1.80;;
14470;SDS011;7321;50.802;4.336;2023-04-01T11:22:09;1.70;;;1.60;;
14470;SDS011;7321;50.802;4.336;2023-04-01T11:50:56;2.97;;;1.70;;
14470;SDS011;7321;50.802;4.336;2023-04-01T11:53:34;5.03;;;2.17;;
14470;SDS011;7321;50.802;4.336;2023-04-01T11:56:29;2.23;;;2.03;;
14470;SDS011;7321;50.802;4.336;2023-04-01T12:04:44;3.93;;;2.23;;
14470;SDS011;7321;50.802;4.336;2023-04-01T12:10:47;2.90;;;2.47;;
14470;SDS011;7321;50.802;4.336;2023-04-01T12:42:14;4.03;;;3.10;;
14470;SDS011;7321;50.802;4.336;2023-04-01T12:48:21;3.50;;;3.20;;
14470;SDS011;7321;50.802;4.336;2023-04-01T12:54:02;6.87;;;3.43;;
14470;SDS011;7321;50.802;4.336;2023-04-01T12:56:53;4.20;;;3.67;;
14470;SDS011;7321;50.802;4.336;2023-04-01T13:16:49;3.40;;;2.73;;
14470;SDS011;7321;50.802;4.336;2023-04-01T13:22:14;3.80;;;2.80;;
14470;SDS011;7321;50.802;4.336;2023-04-01T13:35:46;7.60;;;2.83;;
14470;SDS011;7321;50.802;4.336;2023-04-01T14:15:14;2.87;;;2.10;;
14470;SDS011;7321;50.802;4.336;2023-04-01T14:20:25;1.90;;;1.70;;
14470;SDS011;7321;50.802;4.336;2023-04-01T14:35:29;20.50;;;6.90;;
14470;SDS011;7321;50.802;4.336;2023-04-01T14:38:28;14.07;;;4.77;;
14470;SDS011;7321;50.802;4.336;2023-04-01T14:47:05;0.90;;;0.90;;
14470;SDS011;7321;50.802;4.336;2023-04-01T14:49:52;2.30;;;1.23;;
14470;SDS011;7321;50.802;4.336;2023-04-01T14:52:31;0.80;;;0.80;;
14470;SDS011;7321;50.802;4.336;2023-04-01T14:55:19;1.00;;;0.90;;
14470;SDS011;7321;50.802;4.336;2023-04-01T14:58:15;1.73;;;1.17;;
14470;SDS011;7321;50.802;4.336;2023-04-01T15:01:13;1.33;;;1.23;;
14470;SDS011;7321;50.802;4.336;2023-04-01T15:03:59;1.63;;;1.00;;
14470;SDS011;7321;50.802;4.336;2023-04-01T15:10:40;2.27;;;1.10;;
14470;SDS011;7321;50.802;4.336;2023-04-01T15:16:10;1.40;;;1.30;;
14470;SDS011;7321;50.802;4.336;2023-04-01T15:35:34;1.00;;;0.90;;
14470;SDS011;7321;50.802;4.336;2023-04-01T15:38:44;1.20;;;1.10;;
14470;SDS011;7321;50.802;4.336;2023-04-01T15:44:26;1.97;;;1.20;;
14470;SDS011;7321;50.802;4.336;2023-04-01T16:00:27;10.20;;;9.03;;
14470;SDS011;7321;50.802;4.336;2023-04-01T16:30:50;3.63;;;3.00;;
14470;SDS011;7321;50.802;4.336;2023-04-01T16:33:40;2.20;;;2.10;;
14470;SDS011;7321;50.802;4.336;2023-04-01T16:36:22;1.50;;;1.30;;
14470;SDS011;7321;50.802;4.336;2023-04-01T16:47:40;1.33;;;1.10;;
14470;SDS011;7321;50.802;4.336;2023-04-01T16:50:26;1.90;;;1.57;;
14470;SDS011;7321;50.802;4.336;2023-04-01T16:58:13;1.40;;;1.30;;
14470;SDS011;7321;50.802;4.336;2023-04-01T17:00:55;1.40;;;1.30;;
14470;SDS011;7321;50.802;4.336;2023-04-01T17:03:36;3.90;;;1.93;;
14470;SDS011;7321;50.802;4.336;2023-04-01T17:06:19;3.17;;;2.87;;
14470;SDS011;7321;50.802;4.336;2023-04-01T17:14:59;5.00;;;3.40;;
14470;SDS011;7321;50.802;4.336;2023-04-01T17:23:53;2.83;;;2.60;;
14470;SDS011;7321;50.802;4.336;2023-04-01T17:26:13;1.97;;;1.87;;
14470;SDS011;7321;50.802;4.336;2023-04-01T17:28:57;2.90;;;2.30;;
14470;SDS011;7321;50.802;4.336;2023-04-01T17:31:29;4.43;;;4.03;;
14470;SDS011;7321;50.802;4.336;2023-04-01T17:34:16;4.70;;;4.30;;
14470;SDS011;7321;50.802;4.336;2023-04-01T17:42:36;2.60;;;2.40;;
14470;SDS011;7321;50.802;4.336;2023-04-01T17:45:30;3.30;;;3.00;;
14470;SDS011;7321;50.802;4.336;2023-04-01T17:48:18;9.40;;;8.53;;
14470;SDS011;7321;50.802;4.336;2023-04-01T17:50:55;5.50;;;4.00;;
14470;SDS011;7321;50.802;4.336;2023-04-01T17:59:00;3.57;;;3.33;;
14470;SDS011;7321;50.802;4.336;2023-04-01T18:21:00;14.13;;;12.27;;
14470;SDS011;7321;50.802;4.336;2023-04-01T18:23:30;6.27;;;5.37;;
14470;SDS011;7321;50.802;4.336;2023-04-01T18:26:11;12.97;;;11.80;;
14470;SDS011;7321;50.802;4.336;2023-04-01T18:28:47;7.57;;;6.90;;
14470;SDS011;7321;50.802;4.336;2023-04-01T18:31:23;5.57;;;5.07;;
14470;SDS011;7321;50.802;4.336;2023-04-01T18:33:56;10.00;;;9.10;;
14470;SDS011;7321;50.802;4.336;2023-04-01T18:36:39;14.07;;;11.70;;
14470;SDS011;7321;50.802;4.336;2023-04-01T18:39:17;11.50;;;10.07;;
14470;SDS011;7321;50.802;4.336;2023-04-01T18:41:52;8.30;;;7.50;;
14470;SDS011;7321;50.802;4.336;2023-04-01T18:50:42;8.53;;;7.60;;
14470;SDS011;7321;50.802;4.336;2023-04-01T18:56:11;15.37;;;13.80;;
14470;SDS011;7321;50.802;4.336;2023-04-01T18:58:49;9.00;;;8.03;;
14470;SDS011;7321;50.802;4.336;2023-04-01T19:01:41;7.67;;;6.97;;
14470;SDS011;7321;50.802;4.336;2023-04-01T19:04:37;9.17;;;8.13;;
14470;SDS011;7321;50.802;4.336;2023-04-01T19:21:45;10.73;;;9.63;;
14470;SDS011;7321;50.802;4.336;2023-04-01T19:24:40;15.90;;;14.23;;
14470;SDS011;7321;50.802;4.336;2023-04-01T19:27:42;12.60;;;10.53;;
14470;SDS011;7321;50.802;4.336;2023-04-01T19:42:32;18.03;;;14.57;;
14470;SDS011;7321;50.802;4.336;2023-04-01T19:59:19;17.57;;;14.40;;
14470;SDS011;7321;50.802;4.336;2023-04-01T20:01:53;21.63;;;16.60;;
14470;SDS011;7321;50.802;4.336;2023-04-01T20:04:39;18.77;;;14.87;;
14470;SDS011;7321;50.802;4.336;2023-04-01T20:09:59;25.03;;;18.20;;
14470;SDS011;7321;50.802;4.336;2023-04-01T20:12:46;29.20;;;20.50;;
14470;SDS011;7321;50.802;4.336;2023-04-01T20:15:31;24.00;;;18.03;;
14470;SDS011;7321;50.802;4.336;2023-04-01T20:18:15;23.10;;;15.70;;
14470;SDS011;7321;50.802;4.336;2023-04-01T20:20:57;24.73;;;18.00;;
14470;SDS011;7321;50.802;4.336;2023-04-01T20:23:39;29.13;;;20.67;;
14470;SDS011;7321;50.802;4.336;2023-04-01T20:26:32;26.13;;;17.20;;
14470;SDS011;7321;50.802;4.336;2023-04-01T20:32:15;23.57;;;17.47;;
14470;SDS011;7321;50.802;4.336;2023-04-01T20:34:49;23.23;;;17.23;;
14470;SDS011;7321;50.802;4.336;2023-04-01T20:37:44;36.60;;;23.43;;
14470;SDS011;7321;50.802;4.336;2023-04-01T20:40:26;29.03;;;21.47;;
14470;SDS011;7321;50.802;4.336;2023-04-01T20:51:45;25.63;;;17.47;;
14470;SDS011;7321;50.802;4.336;2023-04-01T20:54:30;19.03;;;14.80;;
14470;SDS011;7321;50.802;4.336;2023-04-01T21:05:35;30.00;;;21.27;;
14470;SDS011;7321;50.802;4.336;2023-04-01T21:11:22;31.00;;;21.27;;
14470;SDS011;7321;50.802;4.336;2023-04-01T21:17:11;24.50;;;18.17;;
14470;SDS011;7321;50.802;4.336;2023-04-01T21:28:25;30.40;;;20.50;;
14470;SDS011;7321;50.802;4.336;2023-04-01T21:42:41;29.50;;;19.37;;
14470;SDS011;7321;50.802;4.336;2023-04-01T21:45:43;27.93;;;18.00;;
14470;SDS011;7321;50.802;4.336;2023-04-01T21:48:37;29.60;;;18.10;;
14470;SDS011;7321;50.802;4.336;2023-04-01T21:51:15;25.83;;;17.33;;
14470;SDS011;7321;50.802;4.336;2023-04-01T21:54:06;26.80;;;17.30;;
14470;SDS011;7321;50.802;4.336;2023-04-01T21:57:11;26.23;;;17.57;;
14470;SDS011;7321;50.802;4.336;2023-04-01T22:06:10;23.57;;;15.33;;
14470;SDS011;7321;50.802;4.336;2023-04-01T22:08:52;21.60;;;15.73;;
14470;SDS011;7321;50.802;4.336;2023-04-01T22:14:41;17.23;;;13.27;;
14470;SDS011;7321;50.802;4.336;2023-04-01T22:17:26;19.47;;;14.30;;
14470;SDS011;7321;50.802;4.336;2023-04-01T22:22:49;18.70;;;13.87;;
14470;SDS011;7321;50.802;4.336;2023-04-01T22:25:33;15.97;;;12.73;;
14470;SDS011;7321;50.802;4.336;2023-04-01T22:30:29;18.20;;;14.47;;
14470;SDS011;7321;50.802;4.336;2023-04-01T22:35:42;17.80;;;14.20;;
14470;SDS011;7321;50.802;4.336;2023-04-01T22:43:43;19.40;;;15.97;;
14470;SDS011;7321;50.802;4.336;2023-04-01T22:46:22;19.70;;;15.43;;
14470;SDS011;7321;50.802;4.336;2023-04-01T22:51:42;22.40;;;18.23;;
14470;SDS011;7321;50.802;4.336;2023-04-01T22:54:23;24.10;;;18.30;;
14470;SDS011;7321;50.802;4.336;2023-04-01T23:02:39;23.10;;;17.73;;
14470;SDS011;7321;50.802;4.336;2023-04-01T23:05:10;25.57;;;19.07;;
14470;SDS011;7321;50.802;4.336;2023-04-01T23:08:07;23.17;;;18.77;;
14470;SDS011;7321;50.802;4.336;2023-04-01T23:11:08;25.37;;;18.60;;
14470;SDS011;7321;50.802;4.336;2023-04-01T23:13:44;19.80;;;15.67;;
14470;SDS011;7321;50.802;4.336;2023-04-01T23:16:21;19.10;;;14.70;;
14470;SDS011;7321;50.802;4.336;2023-04-01T23:18:58;18.87;;;15.33;;
14470;SDS011;7321;50.802;4.336;2023-04-01T23:24:47;15.77;;;13.67;;
14470;SDS011;7321;50.802;4.336;2023-04-01T23:27:19;17.43;;;14.20;;
14470;SDS011;7321;50.802;4.336;2023-04-01T23:30:01;17.70;;;14.70;;
14470;SDS011;7321;50.802;4.336;2023-04-01T23:32:31;17.33;;;14.87;;
14470;SDS011;7321;50.802;4.336;2023-04-01T23:34:59;19.30;;;15.07;;
14470;SDS011;7321;50.802;4.336;2023-04-01T23:37:26;22.93;;;16.77;;
14470;SDS011;7321;50.802;4.336;2023-04-01T23:39:53;20.17;;;16.00;;
14470;SDS011;7321;50.802;4.336;2023-04-01T23:45:11;21.57;;;16.70;;
14470;SDS011;7321;50.802;4.336;2023-04-01T23:47:44;20.37;;;15.53;;
14470;SDS011;7321;50.802;4.336;2023-04-01T23:50:14;22.07;;;16.47;;
14470;SDS011;7321;50.802;4.336;2023-04-01T23:52:47;21.70;;;16.77;;
14470;SDS011;7321;50.802;4.336;2023-04-01T23:55:36;22.23;;;17.00;;
